sensor_id;sensor_type;location;lat;lon;timestamp;P1;durP1;ratioP1;P2;durP2;ratioP2
14847;SDS011;7516;43.570;1.448;2022-10-15T00:01:04;4.60;;;2.00;;
14847;SDS011;7516;43.570;1.448;2022-10-15T00:03:34;3.83;;;2.20;;
14847;SDS011;7516;43.570;1.448;2022-10-15T00:06:02;3.38;;;1.80;;
14847;SDS011;7516;43.570;1.448;2022-10-15T00:08:32;5.35;;;2.00;;
14847;SDS011;7516;43.570;1.448;2022-10-15T00:11:01;7.25;;;2.90;;
14847;SDS011;7516;43.570;1.448;2022-10-15T00:13:30;4.10;;;1.92;;
14847;SDS011;7516;43.570;1.448;2022-10-15T00:15:58;2.42;;;1.85;;
14847;SDS011;7516;43.570;1.448;2022-10-15T00:18:26;3.50;;;1.90;;
14847;SDS011;7516;43.570;1.448;2022-10-15T00:20:53;4.40;;;2.22;;
14847;SDS011;7516;43.570;1.448;2022-10-15T00:23:21;3.05;;;1.95;;
14847;SDS011;7516;43.570;1.448;2022-10-15T00:25:58;4.72;;;2.17;;
14847;SDS011;7516;43.570;1.448;2022-10-15T00:28:27;3.42;;;2.05;;
14847;SDS011;7516;43.570;1.448;2022-10-15T00:30:58;2.90;;;2.00;;
14847;SDS011;7516;43.570;1.448;2022-10-15T00:33:27;2.95;;;2.00;;
14847;SDS011;7516;43.570;1.448;2022-10-15T00:35:58;3.65;;;2.03;;
14847;SDS011;7516;43.570;1.448;2022-10-15T00:38:26;3.75;;;2.20;;
14847;SDS011;7516;43.570;1.448;2022-10-15T00:40:56;3.20;;;1.90;;
14847;SDS011;7516;43.570;1.448;2022-10-15T00:43:37;3.05;;;1.90;;
14847;SDS011;7516;43.570;1.448;2022-10-15T00:46:11;2.20;;;1.67;;
14847;SDS011;7516;43.570;1.448;2022-10-15T00:48:49;3.75;;;1.60;;
14847;SDS011;7516;43.570;1.448;2022-10-15T00:51:20;2.42;;;1.70;;
14847;SDS011;7516;43.570;1.448;2022-10-15T00:53:52;2.50;;;1.70;;
14847;SDS011;7516;43.570;1.448;2022-10-15T00:56:21;3.03;;;1.90;;
14847;SDS011;7516;43.570;1.448;2022-10-15T00:58:51;2.78;;;2.05;;
14847;SDS011;7516;43.570;1.448;2022-10-15T01:01:21;3.67;;;1.93;;
14847;SDS011;7516;43.570;1.448;2022-10-15T01:03:49;2.63;;;1.70;;
14847;SDS011;7516;43.570;1.448;2022-10-15T01:06:17;2.17;;;1.85;;
14847;SDS011;7516;43.570;1.448;2022-10-15T01:08:45;3.63;;;1.80;;
14847;SDS011;7516;43.570;1.448;2022-10-15T01:11:16;2.65;;;1.80;;
14847;SDS011;7516;43.570;1.448;2022-10-15T01:14:06;3.70;;;1.80;;
14847;SDS011;7516;43.570;1.448;2022-10-15T01:16:45;3.27;;;1.87;;
14847;SDS011;7516;43.570;1.448;2022-10-15T01:19:24;3.25;;;1.48;;
14847;SDS011;7516;43.570;1.448;2022-10-15T01:22:03;3.78;;;1.70;;
14847;SDS011;7516;43.570;1.448;2022-10-15T01:24:43;2.95;;;1.80;;
14847;SDS011;7516;43.570;1.448;2022-10-15T01:27:27;2.63;;;1.67;;
14847;SDS011;7516;43.570;1.448;2022-10-15T01:33:02;3.87;;;1.67;;
14847;SDS011;7516;43.570;1.448;2022-10-15T01:35:43;3.22;;;1.70;;
14847;SDS011;7516;43.570;1.448;2022-10-15T01:38:19;2.87;;;1.70;;
14847;SDS011;7516;43.570;1.448;2022-10-15T01:40:56;5.77;;;1.40;;
14847;SDS011;7516;43.570;1.448;2022-10-15T01:43:29;2.80;;;1.42;;
14847;SDS011;7516;43.570;1.448;2022-10-15T01:46:03;3.45;;;1.27;;
14847;SDS011;7516;43.570;1.448;2022-10-15T01:48:34;3.30;;;1.45;;
14847;SDS011;7516;43.570;1.448;2022-10-15T01:51:04;2.60;;;1.40;;
14847;SDS011;7516;43.570;1.448;2022-10-15T01:53:33;1.88;;;1.02;;
14847;SDS011;7516;43.570;1.448;2022-10-15T01:56:03;1.70;;;1.30;;
14847;SDS011;7516;43.570;1.448;2022-10-15T01:58:35;2.10;;;1.23;;
14847;SDS011;7516;43.570;1.448;2022-10-15T02:01:07;3.87;;;1.33;;
14847;SDS011;7516;43.570;1.448;2022-10-15T02:03:45;2.13;;;1.37;;
14847;SDS011;7516;43.570;1.448;2022-10-15T02:06:15;2.55;;;1.70;;
14847;SDS011;7516;43.570;1.448;2022-10-15T02:08:52;2.17;;;1.30;;
14847;SDS011;7516;43.570;1.448;2022-10-15T02:11:30;2.50;;;1.20;;
14847;SDS011;7516;43.570;1.448;2022-10-15T02:14:14;2.50;;;1.40;;
14847;SDS011;7516;43.570;1.448;2022-10-15T02:16:51;1.80;;;1.10;;
14847;SDS011;7516;43.570;1.448;2022-10-15T02:19:28;3.50;;;1.50;;
14847;SDS011;7516;43.570;1.448;2022-10-15T02:22:04;2.23;;;1.33;;
14847;SDS011;7516;43.570;1.448;2022-10-15T02:24:35;2.37;;;1.40;;
14847;SDS011;7516;43.570;1.448;2022-10-15T02:27:06;4.67;;;1.37;;
14847;SDS011;7516;43.570;1.448;2022-10-15T02:29:36;2.50;;;1.30;;
14847;SDS011;7516;43.570;1.448;2022-10-15T02:32:09;2.90;;;1.43;;
14847;SDS011;7516;43.570;1.448;2022-10-15T02:34:40;1.77;;;1.13;;
14847;SDS011;7516;43.570;1.448;2022-10-15T02:37:10;1.93;;;1.40;;
14847;SDS011;7516;43.570;1.448;2022-10-15T02:39:39;2.20;;;1.20;;
14847;SDS011;7516;43.570;1.448;2022-10-15T02:42:06;2.97;;;1.37;;
14847;SDS011;7516;43.570;1.448;2022-10-15T02:44:34;1.83;;;1.23;;
14847;SDS011;7516;43.570;1.448;2022-10-15T02:47:01;1.80;;;1.20;;
14847;SDS011;7516;43.570;1.448;2022-10-15T02:49:30;2.50;;;1.40;;
14847;SDS011;7516;43.570;1.448;2022-10-15T02:51:58;2.17;;;1.30;;
14847;SDS011;7516;43.570;1.448;2022-10-15T02:54:25;2.20;;;1.37;;
14847;SDS011;7516;43.570;1.448;2022-10-15T02:56:53;2.80;;;1.40;;
14847;SDS011;7516;43.570;1.448;2022-10-15T02:59:20;1.20;;;1.10;;
14847;SDS011;7516;43.570;1.448;2022-10-15T03:01:48;1.87;;;1.13;;
14847;SDS011;7516;43.570;1.448;2022-10-15T03:04:16;2.30;;;1.27;;
14847;SDS011;7516;43.570;1.448;2022-10-15T03:06:45;2.23;;;1.60;;
14847;SDS011;7516;43.570;1.448;2022-10-15T03:09:12;2.50;;;1.30;;
14847;SDS011;7516;43.570;1.448;2022-10-15T03:11:40;2.67;;;1.00;;
14847;SDS011;7516;43.570;1.448;2022-10-15T03:14:07;2.80;;;1.33;;
14847;SDS011;7516;43.570;1.448;2022-10-15T03:16:35;1.83;;;1.33;;
14847;SDS011;7516;43.570;1.448;2022-10-15T03:19:02;2.47;;;1.20;;
14847;SDS011;7516;43.570;1.448;2022-10-15T03:21:30;1.70;;;1.00;;
14847;SDS011;7516;43.570;1.448;2022-10-15T03:23:58;1.40;;;0.97;;
14847;SDS011;7516;43.570;1.448;2022-10-15T03:26:26;2.23;;;1.00;;
14847;SDS011;7516;43.570;1.448;2022-10-15T03:28:53;1.70;;;1.37;;
14847;SDS011;7516;43.570;1.448;2022-10-15T03:31:21;3.10;;;1.60;;
14847;SDS011;7516;43.570;1.448;2022-10-15T03:33:48;2.57;;;1.30;;
14847;SDS011;7516;43.570;1.448;2022-10-15T03:36:16;1.97;;;1.27;;
14847;SDS011;7516;43.570;1.448;2022-10-15T03:38:43;1.67;;;1.47;;
14847;SDS011;7516;43.570;1.448;2022-10-15T03:41:12;1.83;;;1.20;;
14847;SDS011;7516;43.570;1.448;2022-10-15T03:43:40;1.53;;;1.13;;
14847;SDS011;7516;43.570;1.448;2022-10-15T03:46:07;1.60;;;1.40;;
14847;SDS011;7516;43.570;1.448;2022-10-15T03:48:34;3.73;;;1.47;;
14847;SDS011;7516;43.570;1.448;2022-10-15T03:51:03;2.10;;;1.10;;
14847;SDS011;7516;43.570;1.448;2022-10-15T03:53:31;2.57;;;1.50;;
14847;SDS011;7516;43.570;1.448;2022-10-15T03:56:01;1.87;;;1.40;;
14847;SDS011;7516;43.570;1.448;2022-10-15T03:58:31;3.83;;;1.30;;
14847;SDS011;7516;43.570;1.448;2022-10-15T04:00:58;4.33;;;1.37;;
14847;SDS011;7516;43.570;1.448;2022-10-15T04:03:26;2.17;;;1.40;;
14847;SDS011;7516;43.570;1.448;2022-10-15T04:05:53;2.63;;;1.70;;
14847;SDS011;7516;43.570;1.448;2022-10-15T04:08:21;2.27;;;1.30;;
14847;SDS011;7516;43.570;1.448;2022-10-15T04:10:49;3.77;;;1.70;;
14847;SDS011;7516;43.570;1.448;2022-10-15T04:13:17;1.97;;;1.33;;
14847;SDS011;7516;43.570;1.448;2022-10-15T04:15:46;2.20;;;1.50;;
14847;SDS011;7516;43.570;1.448;2022-10-15T04:18:13;1.97;;;1.30;;
14847;SDS011;7516;43.570;1.448;2022-10-15T04:20:41;2.80;;;1.40;;
14847;SDS011;7516;43.570;1.448;2022-10-15T04:23:08;1.30;;;1.00;;
14847;SDS011;7516;43.570;1.448;2022-10-15T04:25:36;2.40;;;1.37;;
14847;SDS011;7516;43.570;1.448;2022-10-15T04:28:04;3.43;;;1.37;;
14847;SDS011;7516;43.570;1.448;2022-10-15T04:30:31;1.67;;;1.30;;
14847;SDS011;7516;43.570;1.448;2022-10-15T04:33:00;3.97;;;1.23;;
14847;SDS011;7516;43.570;1.448;2022-10-15T04:35:28;1.67;;;1.30;;
14847;SDS011;7516;43.570;1.448;2022-10-15T04:37:56;2.07;;;1.30;;
14847;SDS011;7516;43.570;1.448;2022-10-15T04:40:23;2.10;;;1.30;;
14847;SDS011;7516;43.570;1.448;2022-10-15T04:42:51;1.77;;;1.30;;
14847;SDS011;7516;43.570;1.448;2022-10-15T04:45:18;3.97;;;1.50;;
14847;SDS011;7516;43.570;1.448;2022-10-15T04:47:46;2.83;;;1.40;;
14847;SDS011;7516;43.570;1.448;2022-10-15T04:50:15;2.83;;;1.40;;
14847;SDS011;7516;43.570;1.448;2022-10-15T04:52:42;1.63;;;1.30;;
14847;SDS011;7516;43.570;1.448;2022-10-15T04:55:10;2.83;;;1.40;;
14847;SDS011;7516;43.570;1.448;2022-10-15T04:57:37;1.37;;;1.20;;
14847;SDS011;7516;43.570;1.448;2022-10-15T05:00:05;2.73;;;1.60;;
14847;SDS011;7516;43.570;1.448;2022-10-15T05:02:33;4.23;;;1.43;;
14847;SDS011;7516;43.570;1.448;2022-10-15T05:05:01;2.80;;;1.40;;
14847;SDS011;7516;43.570;1.448;2022-10-15T05:07:30;3.50;;;1.40;;
14847;SDS011;7516;43.570;1.448;2022-10-15T05:09:57;3.33;;;1.37;;
14847;SDS011;7516;43.570;1.448;2022-10-15T05:12:25;4.23;;;1.70;;
14847;SDS011;7516;43.570;1.448;2022-10-15T05:14:52;4.13;;;2.10;;
14847;SDS011;7516;43.570;1.448;2022-10-15T05:17:20;2.70;;;1.50;;
14847;SDS011;7516;43.570;1.448;2022-10-15T05:19:47;2.97;;;1.40;;
14847;SDS011;7516;43.570;1.448;2022-10-15T05:22:15;3.03;;;1.37;;
14847;SDS011;7516;43.570;1.448;2022-10-15T05:24:44;4.77;;;1.60;;
14847;SDS011;7516;43.570;1.448;2022-10-15T05:27:11;2.37;;;1.70;;
14847;SDS011;7516;43.570;1.448;2022-10-15T05:29:39;5.90;;;1.33;;
14847;SDS011;7516;43.570;1.448;2022-10-15T05:32:06;2.37;;;1.33;;
14847;SDS011;7516;43.570;1.448;2022-10-15T05:34:34;5.60;;;1.43;;
14847;SDS011;7516;43.570;1.448;2022-10-15T05:37:01;4.47;;;1.50;;
14847;SDS011;7516;43.570;1.448;2022-10-15T05:39:28;3.17;;;1.63;;
14847;SDS011;7516;43.570;1.448;2022-10-15T05:41:57;2.90;;;1.40;;
14847;SDS011;7516;43.570;1.448;2022-10-15T05:44:25;3.07;;;1.90;;
14847;SDS011;7516;43.570;1.448;2022-10-15T05:46:52;3.33;;;1.43;;
14847;SDS011;7516;43.570;1.448;2022-10-15T05:49:20;3.33;;;1.63;;
14847;SDS011;7516;43.570;1.448;2022-10-15T05:51:47;2.30;;;1.60;;
14847;SDS011;7516;43.570;1.448;2022-10-15T05:54:15;3.43;;;1.57;;
14847;SDS011;7516;43.570;1.448;2022-10-15T05:56:42;2.17;;;1.57;;
14847;SDS011;7516;43.570;1.448;2022-10-15T05:59:11;2.30;;;1.50;;
14847;SDS011;7516;43.570;1.448;2022-10-15T06:01:39;2.57;;;1.50;;
14847;SDS011;7516;43.570;1.448;2022-10-15T06:04:06;1.90;;;1.30;;
14847;SDS011;7516;43.570;1.448;2022-10-15T06:06:34;4.73;;;1.80;;
14847;SDS011;7516;43.570;1.448;2022-10-15T06:09:01;1.67;;;1.40;;
14847;SDS011;7516;43.570;1.448;2022-10-15T06:11:29;2.73;;;1.47;;
14847;SDS011;7516;43.570;1.448;2022-10-15T06:13:56;2.60;;;1.43;;
14847;SDS011;7516;43.570;1.448;2022-10-15T06:16:25;2.00;;;1.57;;
14847;SDS011;7516;43.570;1.448;2022-10-15T06:18:53;3.07;;;1.40;;
14847;SDS011;7516;43.570;1.448;2022-10-15T06:21:20;2.70;;;1.63;;
14847;SDS011;7516;43.570;1.448;2022-10-15T06:23:48;2.77;;;1.90;;
14847;SDS011;7516;43.570;1.448;2022-10-15T06:26:15;3.10;;;1.70;;
14847;SDS011;7516;43.570;1.448;2022-10-15T06:28:43;3.40;;;1.60;;
14847;SDS011;7516;43.570;1.448;2022-10-15T06:31:10;4.23;;;2.03;;
14847;SDS011;7516;43.570;1.448;2022-10-15T06:33:39;3.43;;;1.53;;
14847;SDS011;7516;43.570;1.448;2022-10-15T06:36:08;2.40;;;1.43;;
14847;SDS011;7516;43.570;1.448;2022-10-15T06:38:37;3.33;;;1.80;;
14847;SDS011;7516;43.570;1.448;2022-10-15T06:41:07;4.30;;;1.70;;
14847;SDS011;7516;43.570;1.448;2022-10-15T06:43:34;1.70;;;1.40;;
14847;SDS011;7516;43.570;1.448;2022-10-15T06:46:02;3.07;;;1.30;;
14847;SDS011;7516;43.570;1.448;2022-10-15T06:48:31;1.70;;;1.50;;
14847;SDS011;7516;43.570;1.448;2022-10-15T06:51:00;2.40;;;1.37;;
14847;SDS011;7516;43.570;1.448;2022-10-15T06:53:29;2.27;;;1.40;;
14847;SDS011;7516;43.570;1.448;2022-10-15T06:55:56;2.30;;;1.30;;
14847;SDS011;7516;43.570;1.448;2022-10-15T06:58:25;2.87;;;1.50;;
14847;SDS011;7516;43.570;1.448;2022-10-15T07:00:56;4.17;;;1.57;;
14847;SDS011;7516;43.570;1.448;2022-10-15T07:03:26;2.50;;;1.40;;
14847;SDS011;7516;43.570;1.448;2022-10-15T07:05:54;2.60;;;1.40;;
14847;SDS011;7516;43.570;1.448;2022-10-15T07:08:23;2.73;;;1.47;;
14847;SDS011;7516;43.570;1.448;2022-10-15T07:10:50;2.00;;;1.60;;
14847;SDS011;7516;43.570;1.448;2022-10-15T07:13:18;2.43;;;1.57;;
14847;SDS011;7516;43.570;1.448;2022-10-15T07:15:45;2.83;;;1.30;;
14847;SDS011;7516;43.570;1.448;2022-10-15T07:18:17;4.73;;;1.60;;
14847;SDS011;7516;43.570;1.448;2022-10-15T07:20:45;3.30;;;1.57;;
14847;SDS011;7516;43.570;1.448;2022-10-15T07:23:12;1.90;;;1.40;;
14847;SDS011;7516;43.570;1.448;2022-10-15T07:25:41;2.60;;;1.50;;
14847;SDS011;7516;43.570;1.448;2022-10-15T07:28:09;2.13;;;1.47;;
14847;SDS011;7516;43.570;1.448;2022-10-15T07:30:36;3.47;;;1.40;;
14847;SDS011;7516;43.570;1.448;2022-10-15T07:33:04;3.60;;;1.63;;
14847;SDS011;7516;43.570;1.448;2022-10-15T07:35:31;2.20;;;1.50;;
14847;SDS011;7516;43.570;1.448;2022-10-15T07:37:59;5.57;;;1.73;;
14847;SDS011;7516;43.570;1.448;2022-10-15T07:40:27;2.70;;;1.30;;
14847;SDS011;7516;43.570;1.448;2022-10-15T07:42:57;2.83;;;1.67;;
14847;SDS011;7516;43.570;1.448;2022-10-15T07:45:25;3.83;;;1.83;;
14847;SDS011;7516;43.570;1.448;2022-10-15T07:47:53;2.97;;;1.50;;
14847;SDS011;7516;43.570;1.448;2022-10-15T07:50:21;2.57;;;1.50;;
14847;SDS011;7516;43.570;1.448;2022-10-15T07:52:48;1.93;;;1.60;;
14847;SDS011;7516;43.570;1.448;2022-10-15T07:55:16;2.60;;;1.77;;
14847;SDS011;7516;43.570;1.448;2022-10-15T07:57:43;3.50;;;1.57;;
14847;SDS011;7516;43.570;1.448;2022-10-15T08:00:12;2.07;;;1.47;;
14847;SDS011;7516;43.570;1.448;2022-10-15T08:02:40;2.20;;;1.40;;
14847;SDS011;7516;43.570;1.448;2022-10-15T08:05:08;2.00;;;1.40;;
14847;SDS011;7516;43.570;1.448;2022-10-15T08:07:35;1.80;;;1.50;;
14847;SDS011;7516;43.570;1.448;2022-10-15T08:10:06;3.73;;;1.40;;
14847;SDS011;7516;43.570;1.448;2022-10-15T08:12:34;2.17;;;1.20;;
14847;SDS011;7516;43.570;1.448;2022-10-15T08:15:01;1.23;;;0.97;;
14847;SDS011;7516;43.570;1.448;2022-10-15T08:17:30;2.37;;;1.20;;
14847;SDS011;7516;43.570;1.448;2022-10-15T08:19:58;1.87;;;1.10;;
14847;SDS011;7516;43.570;1.448;2022-10-15T08:22:25;1.90;;;1.20;;
14847;SDS011;7516;43.570;1.448;2022-10-15T08:24:53;4.53;;;1.50;;
14847;SDS011;7516;43.570;1.448;2022-10-15T08:27:20;2.00;;;1.10;;
14847;SDS011;7516;43.570;1.448;2022-10-15T08:29:48;2.73;;;1.17;;
14847;SDS011;7516;43.570;1.448;2022-10-15T08:32:15;2.47;;;1.17;;
14847;SDS011;7516;43.570;1.448;2022-10-15T08:34:44;2.90;;;1.27;;
14847;SDS011;7516;43.570;1.448;2022-10-15T08:37:12;1.40;;;1.10;;
14847;SDS011;7516;43.570;1.448;2022-10-15T08:39:40;1.73;;;1.20;;
14847;SDS011;7516;43.570;1.448;2022-10-15T08:42:11;3.23;;;1.40;;
14847;SDS011;7516;43.570;1.448;2022-10-15T08:44:43;2.07;;;1.40;;
14847;SDS011;7516;43.570;1.448;2022-10-15T08:47:17;3.20;;;1.20;;
14847;SDS011;7516;43.570;1.448;2022-10-15T08:49:55;6.27;;;1.30;;
14847;SDS011;7516;43.570;1.448;2022-10-15T08:52:26;3.13;;;1.10;;
14847;SDS011;7516;43.570;1.448;2022-10-15T08:55:07;2.83;;;1.10;;
14847;SDS011;7516;43.570;1.448;2022-10-15T08:57:39;2.45;;;1.00;;
14847;SDS011;7516;43.570;1.448;2022-10-15T09:00:12;3.07;;;1.10;;
14847;SDS011;7516;43.570;1.448;2022-10-15T09:02:45;2.03;;;1.20;;
14847;SDS011;7516;43.570;1.448;2022-10-15T09:05:29;2.55;;;0.95;;
14847;SDS011;7516;43.570;1.448;2022-10-15T09:08:05;2.47;;;1.10;;
14847;SDS011;7516;43.570;1.448;2022-10-15T09:10:42;2.93;;;0.97;;
14847;SDS011;7516;43.570;1.448;2022-10-15T09:13:13;1.80;;;1.00;;
14847;SDS011;7516;43.570;1.448;2022-10-15T09:15:47;3.05;;;1.15;;
14847;SDS011;7516;43.570;1.448;2022-10-15T09:18:17;2.38;;;1.10;;
14847;SDS011;7516;43.570;1.448;2022-10-15T09:20:49;3.60;;;1.10;;
14847;SDS011;7516;43.570;1.448;2022-10-15T09:23:19;4.83;;;1.33;;
14847;SDS011;7516;43.570;1.448;2022-10-15T09:25:50;1.53;;;1.00;;
14847;SDS011;7516;43.570;1.448;2022-10-15T09:28:24;1.53;;;1.10;;
14847;SDS011;7516;43.570;1.448;2022-10-15T09:31:01;2.05;;;1.05;;
14847;SDS011;7516;43.570;1.448;2022-10-15T09:33:32;0.80;;;0.70;;
14847;SDS011;7516;43.570;1.448;2022-10-15T09:39:01;3.58;;;1.00;;
14847;SDS011;7516;43.570;1.448;2022-10-15T09:41:42;0.93;;;0.73;;
14847;SDS011;7516;43.570;1.448;2022-10-15T09:44:17;1.73;;;1.00;;
14847;SDS011;7516;43.570;1.448;2022-10-15T09:46:48;2.00;;;1.10;;
14847;SDS011;7516;43.570;1.448;2022-10-15T09:49:17;2.30;;;1.20;;
14847;SDS011;7516;43.570;1.448;2022-10-15T09:51:52;2.97;;;0.93;;
14847;SDS011;7516;43.570;1.448;2022-10-15T09:54:29;1.83;;;0.80;;
14847;SDS011;7516;43.570;1.448;2022-10-15T09:57:03;3.23;;;0.70;;
14847;SDS011;7516;43.570;1.448;2022-10-15T09:59:35;2.05;;;0.88;;
14847;SDS011;7516;43.570;1.448;2022-10-15T10:02:03;1.45;;;0.85;;
14847;SDS011;7516;43.570;1.448;2022-10-15T10:04:43;1.83;;;1.23;;
14847;SDS011;7516;43.570;1.448;2022-10-15T10:07:26;3.07;;;1.20;;
14847;SDS011;7516;43.570;1.448;2022-10-15T10:09:56;2.50;;;0.90;;
14847;SDS011;7516;43.570;1.448;2022-10-15T10:12:27;3.13;;;1.17;;
14847;SDS011;7516;43.570;1.448;2022-10-15T10:14:58;1.70;;;1.10;;
14847;SDS011;7516;43.570;1.448;2022-10-15T10:17:28;2.17;;;1.20;;
14847;SDS011;7516;43.570;1.448;2022-10-15T10:20:04;2.20;;;1.17;;
14847;SDS011;7516;43.570;1.448;2022-10-15T10:22:44;1.98;;;1.08;;
14847;SDS011;7516;43.570;1.448;2022-10-15T10:25:27;1.70;;;1.17;;
14847;SDS011;7516;43.570;1.448;2022-10-15T10:27:58;4.22;;;1.20;;
14847;SDS011;7516;43.570;1.448;2022-10-15T10:30:32;3.17;;;1.40;;
14847;SDS011;7516;43.570;1.448;2022-10-15T10:33:01;4.85;;;1.50;;
14847;SDS011;7516;43.570;1.448;2022-10-15T10:35:32;4.53;;;1.60;;
14847;SDS011;7516;43.570;1.448;2022-10-15T10:38:04;2.85;;;1.50;;
14847;SDS011;7516;43.570;1.448;2022-10-15T10:40:33;3.40;;;1.63;;
14847;SDS011;7516;43.570;1.448;2022-10-15T10:45:56;2.33;;;1.90;;
14847;SDS011;7516;43.570;1.448;2022-10-15T10:48:26;3.67;;;1.67;;
14847;SDS011;7516;43.570;1.448;2022-10-15T10:51:07;3.03;;;1.83;;
14847;SDS011;7516;43.570;1.448;2022-10-15T10:56:27;2.85;;;1.92;;
14847;SDS011;7516;43.570;1.448;2022-10-15T10:59:00;2.50;;;1.52;;
14847;SDS011;7516;43.570;1.448;2022-10-15T11:01:35;3.25;;;1.38;;
14847;SDS011;7516;43.570;1.448;2022-10-15T11:04:03;4.32;;;1.73;;
14847;SDS011;7516;43.570;1.448;2022-10-15T11:12:23;5.15;;;1.90;;
14847;SDS011;7516;43.570;1.448;2022-10-15T11:15:04;3.08;;;1.67;;
14847;SDS011;7516;43.570;1.448;2022-10-15T11:17:47;2.85;;;1.67;;
14847;SDS011;7516;43.570;1.448;2022-10-15T11:20:22;3.25;;;1.45;;
14847;SDS011;7516;43.570;1.448;2022-10-15T11:23:00;3.88;;;1.90;;
14847;SDS011;7516;43.570;1.448;2022-10-15T11:25:43;3.65;;;2.40;;
14847;SDS011;7516;43.570;1.448;2022-10-15T11:28:22;3.45;;;1.90;;
14847;SDS011;7516;43.570;1.448;2022-10-15T11:30:58;5.93;;;2.95;;
14847;SDS011;7516;43.570;1.448;2022-10-15T11:33:45;3.70;;;2.00;;
14847;SDS011;7516;43.570;1.448;2022-10-15T11:36:33;6.70;;;1.80;;
14847;SDS011;7516;43.570;1.448;2022-10-15T11:39:15;2.63;;;1.60;;
14847;SDS011;7516;43.570;1.448;2022-10-15T11:42:06;2.67;;;1.67;;
14847;SDS011;7516;43.570;1.448;2022-10-15T11:44:49;5.22;;;1.60;;
14847;SDS011;7516;43.570;1.448;2022-10-15T11:47:38;4.25;;;1.50;;
14847;SDS011;7516;43.570;1.448;2022-10-15T11:50:23;2.95;;;1.98;;
14847;SDS011;7516;43.570;1.448;2022-10-15T11:53:00;1.83;;;1.52;;
14847;SDS011;7516;43.570;1.448;2022-10-15T11:55:51;1.63;;;1.17;;
14847;SDS011;7516;43.570;1.448;2022-10-15T11:58:28;5.25;;;1.63;;
14847;SDS011;7516;43.570;1.448;2022-10-15T12:01:00;2.08;;;1.75;;
14847;SDS011;7516;43.570;1.448;2022-10-15T12:03:33;1.60;;;1.50;;
14847;SDS011;7516;43.570;1.448;2022-10-15T12:06:07;3.20;;;1.70;;
14847;SDS011;7516;43.570;1.448;2022-10-15T12:08:39;1.70;;;1.60;;
14847;SDS011;7516;43.570;1.448;2022-10-15T12:11:14;3.25;;;1.80;;
14847;SDS011;7516;43.570;1.448;2022-10-15T12:13:51;2.25;;;1.63;;
14847;SDS011;7516;43.570;1.448;2022-10-15T12:16:26;3.13;;;1.80;;
14847;SDS011;7516;43.570;1.448;2022-10-15T12:19:03;2.70;;;1.70;;
14847;SDS011;7516;43.570;1.448;2022-10-15T12:21:39;2.63;;;1.85;;
14847;SDS011;7516;43.570;1.448;2022-10-15T12:27:15;1.63;;;1.40;;
14847;SDS011;7516;43.570;1.448;2022-10-15T12:29:48;3.65;;;1.67;;
14847;SDS011;7516;43.570;1.448;2022-10-15T12:32:20;3.42;;;1.70;;
14847;SDS011;7516;43.570;1.448;2022-10-15T12:34:52;1.75;;;1.60;;
14847;SDS011;7516;43.570;1.448;2022-10-15T12:37:21;3.95;;;1.50;;
14847;SDS011;7516;43.570;1.448;2022-10-15T12:39:53;2.88;;;1.67;;
14847;SDS011;7516;43.570;1.448;2022-10-15T12:42:24;3.15;;;1.48;;
14847;SDS011;7516;43.570;1.448;2022-10-15T12:44:55;2.92;;;1.73;;
14847;SDS011;7516;43.570;1.448;2022-10-15T12:47:45;5.38;;;1.63;;
14847;SDS011;7516;43.570;1.448;2022-10-15T12:50:16;2.92;;;1.50;;
14847;SDS011;7516;43.570;1.448;2022-10-15T12:52:53;2.00;;;1.50;;
14847;SDS011;7516;43.570;1.448;2022-10-15T12:55:30;3.10;;;2.00;;
14847;SDS011;7516;43.570;1.448;2022-10-15T12:58:00;6.70;;;1.90;;
14847;SDS011;7516;43.570;1.448;2022-10-15T13:00:38;4.00;;;1.70;;
14847;SDS011;7516;43.570;1.448;2022-10-15T13:06:11;3.17;;;2.17;;
14847;SDS011;7516;43.570;1.448;2022-10-15T13:08:42;3.97;;;2.00;;
14847;SDS011;7516;43.570;1.448;2022-10-15T13:11:17;2.88;;;2.22;;
14847;SDS011;7516;43.570;1.448;2022-10-15T13:13:48;3.75;;;2.30;;
14847;SDS011;7516;43.570;1.448;2022-10-15T13:16:19;4.90;;;2.55;;
14847;SDS011;7516;43.570;1.448;2022-10-15T13:18:48;3.33;;;2.33;;
14847;SDS011;7516;43.570;1.448;2022-10-15T13:21:19;2.72;;;2.50;;
14847;SDS011;7516;43.570;1.448;2022-10-15T13:23:47;5.82;;;2.40;;
14847;SDS011;7516;43.570;1.448;2022-10-15T13:26:17;4.05;;;2.20;;
14847;SDS011;7516;43.570;1.448;2022-10-15T13:28:46;3.72;;;2.13;;
14847;SDS011;7516;43.570;1.448;2022-10-15T13:31:19;2.60;;;2.33;;
14847;SDS011;7516;43.570;1.448;2022-10-15T13:33:49;2.80;;;2.40;;
14847;SDS011;7516;43.570;1.448;2022-10-15T13:36:20;3.33;;;2.70;;
14847;SDS011;7516;43.570;1.448;2022-10-15T13:38:50;3.05;;;2.40;;
14847;SDS011;7516;43.570;1.448;2022-10-15T13:41:27;3.72;;;2.58;;
14847;SDS011;7516;43.570;1.448;2022-10-15T13:43:57;4.18;;;2.30;;
14847;SDS011;7516;43.570;1.448;2022-10-15T13:46:28;6.50;;;2.58;;
14847;SDS011;7516;43.570;1.448;2022-10-15T13:48:58;3.75;;;2.45;;
14847;SDS011;7516;43.570;1.448;2022-10-15T13:51:29;2.60;;;2.30;;
14847;SDS011;7516;43.570;1.448;2022-10-15T13:54:00;2.97;;;2.67;;
14847;SDS011;7516;43.570;1.448;2022-10-15T13:56:33;3.85;;;2.70;;
14847;SDS011;7516;43.570;1.448;2022-10-15T13:59:02;5.70;;;2.75;;
14847;SDS011;7516;43.570;1.448;2022-10-15T14:01:31;2.97;;;2.67;;
14847;SDS011;7516;43.570;1.448;2022-10-15T14:04:01;4.88;;;2.60;;
14847;SDS011;7516;43.570;1.448;2022-10-15T14:06:29;5.35;;;2.60;;
14847;SDS011;7516;43.570;1.448;2022-10-15T14:08:59;4.63;;;2.78;;
14847;SDS011;7516;43.570;1.448;2022-10-15T14:11:36;3.97;;;2.60;;
14847;SDS011;7516;43.570;1.448;2022-10-15T14:14:24;5.90;;;2.40;;
14847;SDS011;7516;43.570;1.448;2022-10-15T14:16:58;3.80;;;2.58;;
14847;SDS011;7516;43.570;1.448;2022-10-15T14:19:27;6.53;;;2.42;;
14847;SDS011;7516;43.570;1.448;2022-10-15T14:21:59;5.13;;;2.50;;
14847;SDS011;7516;43.570;1.448;2022-10-15T14:24:28;3.05;;;2.75;;
14847;SDS011;7516;43.570;1.448;2022-10-15T14:27:01;3.03;;;2.72;;
14847;SDS011;7516;43.570;1.448;2022-10-15T14:29:34;4.03;;;2.90;;
14847;SDS011;7516;43.570;1.448;2022-10-15T14:32:22;3.85;;;2.95;;
14847;SDS011;7516;43.570;1.448;2022-10-15T14:34:52;3.00;;;2.53;;
14847;SDS011;7516;43.570;1.448;2022-10-15T14:40:13;3.95;;;3.00;;
14847;SDS011;7516;43.570;1.448;2022-10-15T14:42:44;3.47;;;2.75;;
14847;SDS011;7516;43.570;1.448;2022-10-15T14:45:17;5.07;;;3.38;;
14847;SDS011;7516;43.570;1.448;2022-10-15T14:47:48;4.30;;;3.17;;
14847;SDS011;7516;43.570;1.448;2022-10-15T14:50:17;4.18;;;3.00;;
14847;SDS011;7516;43.570;1.448;2022-10-15T14:52:49;5.68;;;3.40;;
14847;SDS011;7516;43.570;1.448;2022-10-15T14:55:25;5.05;;;2.72;;
14847;SDS011;7516;43.570;1.448;2022-10-15T14:57:58;3.47;;;2.90;;
14847;SDS011;7516;43.570;1.448;2022-10-15T15:00:28;3.50;;;2.70;;
14847;SDS011;7516;43.570;1.448;2022-10-15T15:03:00;3.40;;;2.67;;
14847;SDS011;7516;43.570;1.448;2022-10-15T15:05:30;3.83;;;2.85;;
14847;SDS011;7516;43.570;1.448;2022-10-15T15:08:10;4.25;;;2.83;;
14847;SDS011;7516;43.570;1.448;2022-10-15T15:10:38;5.95;;;3.40;;
14847;SDS011;7516;43.570;1.448;2022-10-15T15:13:06;5.05;;;3.42;;
14847;SDS011;7516;43.570;1.448;2022-10-15T15:15:38;5.68;;;3.90;;
14847;SDS011;7516;43.570;1.448;2022-10-15T15:18:09;7.88;;;3.67;;
14847;SDS011;7516;43.570;1.448;2022-10-15T15:20:36;4.78;;;3.20;;
14847;SDS011;7516;43.570;1.448;2022-10-15T15:23:05;4.70;;;3.13;;
14847;SDS011;7516;43.570;1.448;2022-10-15T15:25:35;5.63;;;3.08;;
14847;SDS011;7516;43.570;1.448;2022-10-15T15:28:05;4.30;;;2.85;;
14847;SDS011;7516;43.570;1.448;2022-10-15T15:30:38;4.78;;;3.05;;
14847;SDS011;7516;43.570;1.448;2022-10-15T15:33:09;4.07;;;2.78;;
14847;SDS011;7516;43.570;1.448;2022-10-15T15:35:38;4.20;;;2.95;;
14847;SDS011;7516;43.570;1.448;2022-10-15T15:38:14;5.47;;;3.10;;
14847;SDS011;7516;43.570;1.448;2022-10-15T15:40:42;6.30;;;2.92;;
14847;SDS011;7516;43.570;1.448;2022-10-15T15:43:10;6.97;;;3.15;;
14847;SDS011;7516;43.570;1.448;2022-10-15T15:45:40;4.55;;;2.55;;
14847;SDS011;7516;43.570;1.448;2022-10-15T15:48:09;5.03;;;3.03;;
14847;SDS011;7516;43.570;1.448;2022-10-15T15:50:37;4.78;;;3.00;;